Time,TemperatureF,DewpointF,PressureIn,WindDirection,WindDirectionDegrees,WindSpeedMPH,WindSpeedGustMPH,Humidity,HourlyPrecipIn,Conditions,Clouds,dailyrainin,SoftwareType,DateUTC
2013-10-08 00:01:00,51.1,44.9,30.12,NE,45,1.0,2.5,79,0.00,,,0.00,WUHU21623XXSP,2013-10-08 05:01:00,
2013-10-08 00:06:00,51.4,45.2,30.12,NE,45,0.5,2.0,79,0.00,,,0.00,WUHU21623XXSP,2013-10-08 05:06:00,
2013-10-08 00:11:00,51.6,45.3,30.12,NE,45,0.0,1.2,79,0.00,,,0.00,WUHU21623XXSP,2013-10-08 05:11:00,
2013-10-08 00:16:00,51.4,45.2,30.12,NE,45,0.0,0.0,79,0.00,,,0.00,WUHU21623XXSP,2013-10-08 05:16:00,
2013-10-08 00:22:00,51.4,45.2,30.12,NE,45,0.9,1.1,79,0.00,,,0.00,WUHU21623XXSP,2013-10-08 05:22:00,
2013-10-08 00:27:00,51.3,45.1,30.12,NE,45,1.3,1.6,79,0.00,,,0.00,WUHU21623XXSP,2013-10-08 05:27:00,
2013-10-08 00:32:00,51.3,45.1,30.12,NE,45,2.0,2.0,79,0.00,,,0.00,WUHU21623XXSP,2013-10-08 05:32:00,
2013-10-08 00:36:00,51.4,45.2,30.12,NE,45,1.2,2.0,79,0.00,,,0.00,WUHU21623XXSP,2013-10-08 05:36:00,
2013-10-08 00:41:00,51.4,45.2,30.13,NE,45,0.8,2.0,79,0.00,,,0.00,WUHU21623XXSP,2013-10-08 05:41:00,
2013-10-08 00:47:00,51.4,45.2,30.13,NE,45,0.0,1.3,79,0.00,,,0.00,WUHU21623XXSP,2013-10-08 05:47:00,
2013-10-08 00:52:00,51.4,45.2,30.13,NE,45,0.9,1.1,79,0.00,,,0.00,WUHU21623XXSP,2013-10-08 05:52:00,
2013-10-08 00:57:00,51.4,45.2,30.13,NE,45,0.9,2.0,79,0.00,,,0.00,WUHU21623XXSP,2013-10-08 05:57:00,
2013-10-08 01:02:00,51.3,44.7,30.13,NNE,22,1.1,2.0,78,0.00,,,0.00,WUHU21623XXSP,2013-10-08 06:02:00,
2013-10-08 01:07:00,50.7,44.1,30.13,NNE,22,1.1,1.6,78,0.00,,,0.00,WUHU21623XXSP,2013-10-08 06:07:00,
2013-10-08 01:12:00,50.7,44.1,30.13,NNE,22,1.8,2.0,78,0.00,,,0.00,WUHU21623XXSP,2013-10-08 06:12:00,
2013-10-08 01:17:00,50.5,43.9,30.13,NNE,22,1.8,2.0,78,0.00,,,0.00,WUHU21623XXSP,2013-10-08 06:17:00,
2013-10-08 01:22:00,50.4,43.9,30.13,NNE,22,1.5,2.5,78,0.00,,,0.00,WUHU21623XXSP,2013-10-08 06:22:00,
2013-10-08 01:27:00,50.2,43.7,30.13,NNE,22,1.4,2.5,78,0.00,,,0.00,WUHU21623XXSP,2013-10-08 06:27:00,
2013-10-08 01:32:00,50.0,43.5,30.13,NNE,22,1.0,2.2,78,0.00,,,0.00,WUHU21623XXSP,2013-10-08 06:32:00,
2013-10-08 01:37:00,49.8,43.3,30.14,NNE,22,2.0,2.0,78,0.00,,,0.00,WUHU21623XXSP,2013-10-08 06:37:00,
2013-10-08 01:42:00,49.8,43.3,30.13,NNE,22,1.8,2.5,78,0.00,,,0.00,WUHU21623XXSP,2013-10-08 06:42:00,
2013-10-08 01:47:00,50.2,43.7,30.14,NNE,22,1.6,2.5,78,0.00,,,0.00,WUHU21623XXSP,2013-10-08 06:47:00,
2013-10-08 01:52:00,50.2,43.3,30.14,NNE,22,2.5,2.5,77,0.00,,,0.00,WUHU21623XXSP,2013-10-08 06:52:00,
2013-10-08 01:57:00,50.2,43.3,30.14,NNE,22,2.4,3.1,77,0.00,,,0.00,WUHU21623XXSP,2013-10-08 06:57:00,
2013-10-08 02:02:00,49.8,42.9,30.14,NNE,22,2.7,3.1,77,0.00,,,0.00,WUHU21623XXSP,2013-10-08 07:02:00,
2013-10-08 02:07:00,50.0,43.1,30.14,NNE,22,3.1,3.4,77,0.00,,,0.00,WUHU21623XXSP,2013-10-08 07:07:00,
2013-10-08 02:12:00,49.8,42.9,30.14,NNE,22,2.7,3.6,77,0.00,,,0.00,WUHU21623XXSP,2013-10-08 07:12:00,
2013-10-08 02:17:00,49.8,42.9,30.14,NNE,22,3.3,4.7,77,0.00,,,0.00,WUHU21623XXSP,2013-10-08 07:17:00,
2013-10-08 02:22:00,49.6,42.7,30.14,NNE,22,1.6,4.7,77,0.00,,,0.00,WUHU21623XXSP,2013-10-08 07:22:00,
2013-10-08 02:27:00,49.6,42.4,30.13,NE,45,1.8,3.4,76,0.00,,,0.00,WUHU21623XXSP,2013-10-08 07:27:00,
2013-10-08 02:32:00,49.6,42.4,30.13,NE,45,1.0,2.2,76,0.00,,,0.00,WUHU21623XXSP,2013-10-08 07:32:00,
2013-10-08 02:37:00,49.6,42.4,30.14,NE,45,0.0,1.3,76,0.00,,,0.00,WUHU21623XXSP,2013-10-08 07:37:00,
2013-10-08 02:42:00,49.5,42.3,30.14,NE,45,0.9,1.6,76,0.00,,,0.00,WUHU21623XXSP,2013-10-08 07:42:00,
2013-10-08 02:47:00,49.6,42.4,30.14,NE,45,1.9,2.9,76,0.00,,,0.00,WUHU21623XXSP,2013-10-08 07:47:00,
2013-10-08 02:52:00,49.6,42.4,30.13,NE,45,1.3,2.9,76,0.00,,,0.00,WUHU21623XXSP,2013-10-08 07:52:00,
2013-10-08 02:57:00,49.8,42.6,30.14,NE,45,2.5,2.7,76,0.00,,,0.00,WUHU21623XXSP,2013-10-08 07:57:00,
2013-10-08 03:02:00,49.8,42.6,30.14,NNE,22,1.8,2.7,76,0.00,,,0.00,WUHU21623XXSP,2013-10-08 08:02:00,
2013-10-08 03:07:00,49.8,42.6,30.14,NNE,22,4.3,4.7,76,0.00,,,0.00,WUHU21623XXSP,2013-10-08 08:07:00,
2013-10-08 03:12:00,49.8,42.3,30.14,NNE,22,3.4,5.1,75,0.00,,,0.00,WUHU21623XXSP,2013-10-08 08:12:00,
2013-10-08 03:17:00,49.8,42.6,30.14,NNE,28,2.8,5.4,76,0.00,,,0.00,WUHU21623XXSP,2013-10-08 08:17:00,
2013-10-08 03:22:00,49.6,42.4,30.14,NE,45,2.7,5.4,76,0.00,,,0.00,WUHU21623XXSP,2013-10-08 08:22:00,
2013-10-08 03:27:00,49.6,42.1,30.14,NE,42,2.5,4.0,75,0.00,,,0.00,WUHU21623XXSP,2013-10-08 08:27:00,
2013-10-08 03:32:00,49.6,42.1,30.14,NNE,22,3.8,4.0,75,0.00,,,0.00,WUHU21623XXSP,2013-10-08 08:32:00,
2013-10-08 03:37:00,49.6,42.1,30.14,NNE,22,4.0,4.7,75,0.00,,,0.00,WUHU21623XXSP,2013-10-08 08:37:00,
2013-10-08 03:42:00,49.6,42.1,30.14,NNE,22,4.3,5.4,75,0.00,,,0.00,WUHU21623XXSP,2013-10-08 08:42:00,
2013-10-08 03:47:00,49.5,42.0,30.13,NNE,22,2.8,5.4,75,0.00,,,0.00,WUHU21623XXSP,2013-10-08 08:47:00,
2013-10-08 03:52:00,49.3,41.8,30.14,NNE,22,3.6,5.1,75,0.00,,,0.00,WUHU21623XXSP,2013-10-08 08:52:00,
2013-10-08 03:57:00,49.3,41.8,30.14,NNE,22,2.9,5.1,75,0.00,,,0.00,WUHU21623XXSP,2013-10-08 08:57:00,
2013-10-08 04:02:00,49.3,41.8,30.15,NE,45,3.1,4.3,75,0.00,,,0.00,WUHU21623XXSP,2013-10-08 09:02:00,
2013-10-08 04:07:00,49.3,41.8,30.15,NNE,22,4.3,4.3,75,0.00,,,0.00,WUHU21623XXSP,2013-10-08 09:07:00,
2013-10-08 04:12:00,49.3,41.8,30.14,NE,36,3.4,4.5,75,0.00,,,0.00,WUHU21623XXSP,2013-10-08 09:12:00,
2013-10-08 04:17:00,49.3,41.8,30.15,NNE,22,4.0,5.4,75,0.00,,,0.00,WUHU21623XXSP,2013-10-08 09:17:00,
2013-10-08 04:22:00,49.3,41.8,30.15,NNE,31,2.4,5.6,75,0.00,,,0.00,WUHU21623XXSP,2013-10-08 09:22:00,
2013-10-08 04:27:00,49.3,41.8,30.15,NNE,22,3.6,5.6,75,0.00,,,0.00,WUHU21623XXSP,2013-10-08 09:27:00,
2013-10-08 04:32:00,49.3,41.8,30.15,NE,45,3.4,5.1,75,0.00,,,0.00,WUHU21623XXSP,2013-10-08 09:32:00,
2013-10-08 04:37:00,49.3,41.8,30.15,NE,35,4.8,6.7,75,0.00,,,0.00,WUHU21623XXSP,2013-10-08 09:37:00,
2013-10-08 04:42:00,49.1,41.6,30.15,NNE,29,3.9,6.9,75,0.00,,,0.00,WUHU21623XXSP,2013-10-08 09:42:00,
2013-10-08 04:47:00,49.1,41.6,30.15,NE,45,3.6,6.9,75,0.00,,,0.00,WUHU21623XXSP,2013-10-08 09:47:00,
2013-10-08 04:52:00,49.1,41.6,30.15,NNE,22,5.4,5.8,75,0.00,,,0.00,WUHU21623XXSP,2013-10-08 09:52:00,
2013-10-08 04:57:00,49.1,41.6,30.15,NNE,22,4.7,6.7,75,0.00,,,0.00,WUHU21623XXSP,2013-10-08 09:57:00,
2013-10-08 05:02:00,49.1,41.6,30.16,NE,34,4.1,6.9,75,0.00,,,0.00,WUHU21623XXSP,2013-10-08 10:02:00,
2013-10-08 05:07:00,49.1,41.6,30.15,NNE,22,5.8,6.9,75,0.00,,,0.00,WUHU21623XXSP,2013-10-08 10:07:00,
2013-10-08 05:12:00,48.9,41.4,30.16,NNE,22,4.5,6.3,75,0.00,,,0.00,WUHU21623XXSP,2013-10-08 10:12:00,
2013-10-08 05:17:00,48.9,41.4,30.15,NE,41,3.6,6.0,75,0.00,,,0.00,WUHU21623XXSP,2013-10-08 10:17:00,
2013-10-08 05:22:00,48.9,41.4,30.16,NNE,33,4.2,6.0,75,0.00,,,0.00,WUHU21623XXSP,2013-10-08 10:22:00,
2013-10-08 05:27:00,48.7,41.2,30.16,NE,41,3.3,5.4,75,0.00,,,0.00,WUHU21623XXSP,2013-10-08 10:27:00,
2013-10-08 05:32:00,48.7,41.2,30.16,NE,45,2.5,4.9,75,0.00,,,0.00,WUHU21623XXSP,2013-10-08 10:32:00,
2013-10-08 05:37:00,48.7,41.2,30.16,NE,45,4.5,4.9,75,0.00,,,0.00,WUHU21623XXSP,2013-10-08 10:37:00,
2013-10-08 05:42:00,48.7,41.2,30.16,NE,38,3.7,5.4,75,0.00,,,0.00,WUHU21623XXSP,2013-10-08 10:42:00,
2013-10-08 05:47:00,48.7,41.2,30.16,NE,47,3.5,5.8,75,0.00,,,0.00,WUHU21623XXSP,2013-10-08 10:47:00,
2013-10-08 05:52:00,48.7,41.2,30.16,ENE,67,3.8,6.0,75,0.00,,,0.00,WUHU21623XXSP,2013-10-08 10:52:00,
2013-10-08 05:57:00,48.6,41.1,30.16,NE,45,3.0,6.0,75,0.00,,,0.00,WUHU21623XXSP,2013-10-08 10:57:00,
2013-10-08 06:02:00,48.6,41.1,30.16,NE,45,3.1,4.9,75,0.00,,,0.00,WUHU21623XXSP,2013-10-08 11:02:00,
2013-10-08 06:07:00,48.6,41.1,30.16,NE,45,3.2,4.9,75,0.00,,,0.00,WUHU21623XXSP,2013-10-08 11:07:00,
2013-10-08 06:12:00,48.4,40.9,30.16,NNE,22,3.6,5.4,75,0.00,,,0.00,WUHU21623XXSP,2013-10-08 11:12:00,
2013-10-08 06:17:00,48.4,40.9,30.16,NE,45,3.3,5.4,75,0.00,,,0.00,WUHU21623XXSP,2013-10-08 11:17:00,
2013-10-08 06:22:00,48.4,40.9,30.16,NE,45,5.1,5.1,75,0.00,,,0.00,WUHU21623XXSP,2013-10-08 11:22:00,
2013-10-08 06:27:00,48.4,40.9,30.16,NE,39,4.0,5.1,75,0.00,,,0.00,WUHU21623XXSP,2013-10-08 11:27:00,
2013-10-08 06:32:00,48.4,40.9,30.16,NE,45,4.0,5.1,75,0.00,,,0.00,WUHU21623XXSP,2013-10-08 11:32:00,
2013-10-08 06:37:00,48.2,40.7,30.16,NE,45,3.6,4.7,75,0.00,,,0.00,WUHU21623XXSP,2013-10-08 11:37:00,
2013-10-08 06:42:00,48.2,40.7,30.16,NE,45,3.1,5.1,75,0.00,,,0.00,WUHU21623XXSP,2013-10-08 11:42:00,
2013-10-08 06:47:00,48.0,40.5,30.16,NNE,33,3.6,5.1,75,0.00,,,0.00,WUHU21623XXSP,2013-10-08 11:47:00,
2013-10-08 06:52:00,48.0,40.5,30.16,NE,45,4.0,5.6,75,0.00,,,0.00,WUHU21623XXSP,2013-10-08 11:52:00,
2013-10-08 06:57:00,48.0,40.2,30.16,NNE,22,2.9,5.6,74,0.00,,,0.00,WUHU21623XXSP,2013-10-08 11:57:00,
2013-10-08 07:02:00,48.0,40.2,30.16,NNE,22,3.8,5.1,74,0.00,,,0.00,WUHU21623XXSP,2013-10-08 12:02:00,
2013-10-08 07:07:00,48.0,40.5,30.16,NNE,24,3.5,6.3,75,0.00,,,0.00,WUHU21623XXSP,2013-10-08 12:07:00,
2013-10-08 07:12:00,48.0,40.2,30.16,NNE,22,4.7,6.3,74,0.00,,,0.00,WUHU21623XXSP,2013-10-08 12:12:00,
2013-10-08 07:17:00,48.0,40.2,30.16,NNE,22,3.3,5.6,74,0.00,,,0.00,WUHU21623XXSP,2013-10-08 12:17:00,
2013-10-08 07:22:00,48.0,40.2,30.17,NE,45,4.0,6.7,74,0.00,,,0.00,WUHU21623XXSP,2013-10-08 12:22:00,
2013-10-08 07:27:00,48.0,40.2,30.17,NNE,22,3.8,6.7,74,0.00,,,0.00,WUHU21623XXSP,2013-10-08 12:27:00,
2013-10-08 07:32:00,48.4,40.6,30.17,NNE,22,2.4,5.6,74,0.00,,,0.00,WUHU21623XXSP,2013-10-08 12:32:00,
2013-10-08 07:37:00,48.4,40.6,30.17,NNE,22,4.7,5.6,74,0.00,,,0.00,WUHU21623XXSP,2013-10-08 12:37:00,
2013-10-08 07:42:00,48.6,40.8,30.18,NNE,24,3.0,6.5,74,0.00,,,0.00,WUHU21623XXSP,2013-10-08 12:42:00,
2013-10-08 07:47:00,48.7,40.9,30.18,NNE,22,3.1,6.5,74,0.00,,,0.00,WUHU21623XXSP,2013-10-08 12:47:00,
2013-10-08 07:52:00,48.9,41.1,30.18,NE,45,4.9,5.6,74,0.00,,,0.00,WUHU21623XXSP,2013-10-08 12:52:00,
2013-10-08 07:57:00,49.3,41.4,30.18,NNE,22,5.1,6.0,74,0.00,,,0.00,WUHU21623XXSP,2013-10-08 12:57:00,
2013-10-08 08:02:00,49.8,41.9,30.18,NNE,22,5.1,8.3,74,0.00,,,0.00,WUHU21623XXSP,2013-10-08 13:02:00,
2013-10-08 08:07:00,50.7,42.8,30.18,NE,39,4.1,8.3,74,0.00,,,0.00,WUHU21623XXSP,2013-10-08 13:07:00,
2013-10-08 08:12:00,51.4,43.1,30.18,NNE,22,5.6,7.8,73,0.00,,,0.00,WUHU21623XXSP,2013-10-08 13:12:00,
2013-10-08 08:17:00,52.3,44.3,30.18,NE,35,5.8,7.8,74,0.00,,,0.00,WUHU21623XXSP,2013-10-08 13:17:00,
2013-10-08 08:22:00,52.9,44.9,30.18,NNE,33,5.7,8.5,74,0.00,,,0.00,WUHU21623XXSP,2013-10-08 13:22:00,
2013-10-08 08:27:00,53.4,45.8,30.18,ENE,67,6.9,8.5,75,0.00,,,0.00,WUHU21623XXSP,2013-10-08 13:27:00,
2013-10-08 08:32:00,54.3,47.0,30.18,NE,40,5.0,7.4,76,0.00,,,0.00,WUHU21623XXSP,2013-10-08 13:32:00,
2013-10-08 08:37:00,54.9,47.9,30.18,NE,52,6.6,9.6,77,0.00,,,0.00,WUHU21623XXSP,2013-10-08 13:37:00,
2013-10-08 08:42:00,55.6,48.9,30.18,ENE,67,8.1,10.5,78,0.00,,,0.00,WUHU21623XXSP,2013-10-08 13:42:00,
2013-10-08 08:47:00,55.9,49.5,30.18,NE,50,4.3,10.5,79,0.00,,,0.00,WUHU21623XXSP,2013-10-08 13:47:00,
2013-10-08 08:52:00,56.8,50.4,30.18,ENE,72,5.9,9.4,79,0.00,,,0.00,WUHU21623XXSP,2013-10-08 13:52:00,
2013-10-08 08:57:00,57.4,51.0,30.19,ENE,60,4.6,11.4,79,0.00,,,0.00,WUHU21623XXSP,2013-10-08 13:57:00,
2013-10-08 09:02:00,57.9,51.2,30.19,NE,46,7.0,11.4,78,0.00,,,0.00,WUHU21623XXSP,2013-10-08 14:02:00,
2013-10-08 09:07:00,58.3,51.5,30.19,NNE,22,4.9,10.3,78,0.00,,,0.00,WUHU21623XXSP,2013-10-08 14:07:00,
2013-10-08 09:12:00,58.8,51.7,30.18,NE,54,5.8,10.7,77,0.00,,,0.00,WUHU21623XXSP,2013-10-08 14:12:00,
2013-10-08 09:17:00,58.8,51.3,30.18,NE,49,8.3,12.8,76,0.00,,,0.00,WUHU21623XXSP,2013-10-08 14:17:00,
2013-10-08 09:22:00,59.0,51.2,30.18,NE,55,7.8,12.8,75,0.00,,,0.00,WUHU21623XXSP,2013-10-08 14:22:00,
2013-10-08 09:27:00,59.5,51.7,30.18,ENE,61,5.4,10.7,75,0.00,,,0.00,WUHU21623XXSP,2013-10-08 14:27:00,
2013-10-08 09:32:00,60.1,51.9,30.18,ENE,63,5.9,13.4,74,0.00,,,0.00,WUHU21623XXSP,2013-10-08 14:32:00,
2013-10-08 09:37:00,60.4,51.8,30.18,ENE,67,8.1,14.8,73,0.00,,,0.00,WUHU21623XXSP,2013-10-08 14:37:00,
2013-10-08 09:42:00,61.0,52.0,30.19,ENE,62,4.1,14.8,72,0.00,,,0.00,WUHU21623XXSP,2013-10-08 14:42:00,
2013-10-08 09:47:00,61.5,52.5,30.19,NE,44,7.1,12.3,72,0.00,,,0.00,WUHU21623XXSP,2013-10-08 14:47:00,
2013-10-08 09:52:00,61.9,52.2,30.18,ENE,57,10.3,16.1,70,0.00,,,0.00,WUHU21623XXSP,2013-10-08 14:52:00,
2013-10-08 09:57:00,62.1,52.0,30.18,East,98,5.5,16.1,69,0.00,,,0.00,WUHU21623XXSP,2013-10-08 14:57:00,
2013-10-08 10:02:00,62.4,52.2,30.18,NE,45,8.3,12.3,69,0.00,,,0.00,WUHU21623XXSP,2013-10-08 15:02:00,
2013-10-08 10:07:00,62.8,52.2,30.18,ENE,59,7.8,16.3,68,0.00,,,0.00,WUHU21623XXSP,2013-10-08 15:07:00,
2013-10-08 10:12:00,62.8,51.4,30.18,NE,55,7.7,18.3,66,0.00,,,0.00,WUHU21623XXSP,2013-10-08 15:12:00,
2013-10-08 10:17:00,63.1,52.1,30.18,NE,45,13.4,18.3,67,0.00,,,0.00,WUHU21623XXSP,2013-10-08 15:17:00,
2013-10-08 10:22:00,63.1,51.3,30.18,NE,47,11.7,15.9,65,0.00,,,0.00,WUHU21623XXSP,2013-10-08 15:22:00,
2013-10-08 10:27:00,63.3,51.5,30.18,East,90,13.2,15.9,65,0.00,,,0.00,WUHU21623XXSP,2013-10-08 15:27:00,
2013-10-08 10:32:00,63.7,51.9,30.18,ENE,67,8.3,15.7,65,0.00,,,0.00,WUHU21623XXSP,2013-10-08 15:32:00,
2013-10-08 10:37:00,63.9,51.6,30.18,ENE,67,7.4,13.9,64,0.00,,,0.00,WUHU21623XXSP,2013-10-08 15:37:00,
2013-10-08 10:42:00,64.2,52.4,30.18,NNE,22,6.3,11.6,65,0.00,,,0.00,WUHU21623XXSP,2013-10-08 15:42:00,
2013-10-08 10:47:00,64.8,52.1,30.17,SSE,157,8.3,11.2,63,0.00,,,0.00,WUHU21623XXSP,2013-10-08 15:47:00,
2013-10-08 10:52:00,64.9,52.6,30.17,ENE,76,6.6,11.2,64,0.00,,,0.00,WUHU21623XXSP,2013-10-08 15:52:00,
2013-10-08 10:57:00,65.5,52.7,30.17,NE,45,9.4,11.0,63,0.00,,,0.00,WUHU21623XXSP,2013-10-08 15:57:00,
2013-10-08 11:02:00,65.8,53.0,30.17,East,87,6.0,12.3,63,0.00,,,0.00,WUHU21623XXSP,2013-10-08 16:02:00,
2013-10-08 11:07:00,66.0,52.8,30.17,ENE,70,7.5,14.1,62,0.00,,,0.00,WUHU21623XXSP,2013-10-08 16:07:00,
2013-10-08 11:12:00,66.6,52.9,30.17,ENE,67,6.9,14.1,61,0.00,,,0.00,WUHU21623XXSP,2013-10-08 16:12:00,
2013-10-08 11:17:00,66.6,52.0,30.17,NNE,22,13.6,14.8,59,0.00,,,0.00,WUHU21623XXSP,2013-10-08 16:17:00,
2013-10-08 11:22:00,66.4,52.3,30.17,East,82,6.1,14.8,60,0.00,,,0.00,WUHU21623XXSP,2013-10-08 16:22:00,
2013-10-08 11:27:00,66.4,51.8,30.17,ENE,67,8.5,13.4,59,0.00,,,0.00,WUHU21623XXSP,2013-10-08 16:27:00,
2013-10-08 11:32:00,66.4,51.3,30.17,NE,45,13.9,14.1,58,0.00,,,0.00,WUHU21623XXSP,2013-10-08 16:32:00,
2013-10-08 11:37:00,66.4,51.3,30.17,East,79,7.6,17.9,58,0.00,,,0.00,WUHU21623XXSP,2013-10-08 16:37:00,
2013-10-08 11:42:00,66.7,51.6,30.17,East,90,6.7,17.9,58,0.00,,,0.00,WUHU21623XXSP,2013-10-08 16:42:00,
2013-10-08 11:47:00,66.9,51.8,30.16,ENE,67,10.1,15.4,58,0.00,,,0.00,WUHU21623XXSP,2013-10-08 16:47:00,
2013-10-08 11:52:00,66.9,51.3,30.17,NNE,22,10.5,16.3,57,0.00,,,0.00,WUHU21623XXSP,2013-10-08 16:52:00,
2013-10-08 11:57:00,67.3,51.7,30.16,NE,45,7.4,16.3,57,0.00,,,0.00,WUHU21623XXSP,2013-10-08 16:57:00,
2013-10-08 12:02:00,67.6,52.0,30.16,East,79,7.8,12.1,57,0.00,,,0.00,WUHU21623XXSP,2013-10-08 17:02:00,
2013-10-08 12:07:00,67.8,52.2,30.16,East,90,11.4,12.1,57,0.00,,,0.00,WUHU21623XXSP,2013-10-08 17:07:00,
2013-10-08 12:12:00,68.2,52.0,30.16,NE,53,7.2,15.2,56,0.00,,,0.00,WUHU21623XXSP,2013-10-08 17:12:00,
2013-10-08 12:18:00,68.4,52.7,30.16,NE,45,8.9,15.2,57,0.00,,,0.00,WUHU21623XXSP,2013-10-08 17:18:00,
2013-10-08 12:23:00,68.4,52.2,30.15,ENE,63,5.5,12.3,56,0.00,,,0.00,WUHU21623XXSP,2013-10-08 17:23:00,
2013-10-08 12:28:00,68.5,51.8,30.15,ENE,60,9.0,13.4,55,0.00,,,0.00,WUHU21623XXSP,2013-10-08 17:28:00,
2013-10-08 12:33:00,68.5,51.3,30.15,NNE,33,14.8,19.0,54,0.00,,,0.00,WUHU21623XXSP,2013-10-08 17:33:00,
2013-10-08 12:38:00,68.2,51.0,30.15,ENE,78,7.1,22.1,54,0.00,,,0.00,WUHU21623XXSP,2013-10-08 17:38:00,
2013-10-08 12:43:00,68.5,50.8,30.14,ENE,61,8.7,22.1,53,0.00,,,0.00,WUHU21623XXSP,2013-10-08 17:43:00,
2013-10-08 12:48:00,68.7,51.0,30.14,NE,55,9.0,13.4,53,0.00,,,0.00,WUHU21623XXSP,2013-10-08 17:48:00,
2013-10-08 12:53:00,68.7,51.0,30.13,ENE,66,10.0,13.4,53,0.00,,,0.00,WUHU21623XXSP,2013-10-08 17:53:00,
2013-10-08 12:58:00,68.9,50.6,30.13,NE,45,16.3,16.3,52,0.00,,,0.00,WUHU21623XXSP,2013-10-08 17:58:00,
2013-10-08 13:03:00,69.1,50.8,30.13,ENE,60,9.1,16.3,52,0.00,,,0.00,WUHU21623XXSP,2013-10-08 18:03:00,
2013-10-08 13:08:00,69.3,52.1,30.13,ESE,112,6.9,15.9,54,0.00,,,0.00,WUHU21623XXSP,2013-10-08 18:08:00,
2013-10-08 13:13:00,69.6,51.8,30.13,NE,45,8.3,13.6,53,0.00,,,0.00,WUHU21623XXSP,2013-10-08 18:13:00,
2013-10-08 13:18:00,70.0,51.7,30.13,NE,45,8.5,13.6,52,0.00,,,0.00,WUHU21623XXSP,2013-10-08 18:18:00,
2013-10-08 13:23:00,69.8,51.5,30.13,NE,45,11.6,15.7,52,0.00,,,0.00,WUHU21623XXSP,2013-10-08 18:23:00,
2013-10-08 13:28:00,70.0,51.7,30.12,East,90,9.2,15.7,52,0.00,,,0.00,WUHU21623XXSP,2013-10-08 18:28:00,
2013-10-08 13:33:00,70.0,51.1,30.12,ENE,59,9.2,22.6,51,0.00,,,0.00,WUHU21623XXSP,2013-10-08 18:33:00,
2013-10-08 13:38:00,70.0,51.1,30.12,East,86,9.5,22.6,51,0.00,,,0.00,WUHU21623XXSP,2013-10-08 18:38:00,
2013-10-08 13:43:00,70.3,51.4,30.12,NE,45,10.3,14.5,51,0.00,,,0.00,WUHU21623XXSP,2013-10-08 18:43:00,
2013-10-08 13:48:00,70.3,51.4,30.12,NE,36,9.5,13.4,51,0.00,,,0.00,WUHU21623XXSP,2013-10-08 18:48:00,
2013-10-08 13:53:00,70.3,51.9,30.12,ENE,67,11.0,14.5,52,0.00,,,0.00,WUHU21623XXSP,2013-10-08 18:53:00,
2013-10-08 13:59:00,70.5,51.6,30.11,ENE,57,7.2,17.4,51,0.00,,,0.00,WUHU21623XXSP,2013-10-08 18:59:00,
2013-10-08 14:04:00,70.5,51.6,30.11,ESE,112,9.6,17.4,51,0.00,,,0.00,WUHU21623XXSP,2013-10-08 19:04:00,
2013-10-08 14:09:00,70.5,51.0,30.11,NE,54,9.1,15.4,50,0.00,,,0.00,WUHU21623XXSP,2013-10-08 19:09:00,